sensor_id;sensor_type;location;lat;lon;timestamp;P1;durP1;ratioP1;P2;durP2;ratioP2
3050;SDS011;1535;51.098;6.414;2023-12-20T00:01:01;8.70;;;8.60;;
3050;SDS011;1535;51.098;6.414;2023-12-20T00:03:28;8.60;;;8.50;;
3050;SDS011;1535;51.098;6.414;2023-12-20T00:05:56;9.13;;;9.03;;
3050;SDS011;1535;51.098;6.414;2023-12-20T00:08:23;9.10;;;9.00;;
3050;SDS011;1535;51.098;6.414;2023-12-20T00:10:50;8.43;;;8.33;;
3050;SDS011;1535;51.098;6.414;2023-12-20T00:13:16;8.80;;;8.70;;
3050;SDS011;1535;51.098;6.414;2023-12-20T00:15:44;8.90;;;8.80;;
3050;SDS011;1535;51.098;6.414;2023-12-20T00:18:12;8.60;;;8.50;;
3050;SDS011;1535;51.098;6.414;2023-12-20T00:20:39;8.97;;;8.87;;
3050;SDS011;1535;51.098;6.414;2023-12-20T00:23:06;9.10;;;9.00;;
3050;SDS011;1535;51.098;6.414;2023-12-20T00:25:33;8.90;;;8.80;;
3050;SDS011;1535;51.098;6.414;2023-12-20T00:28:00;8.80;;;8.70;;
3050;SDS011;1535;51.098;6.414;2023-12-20T00:30:28;9.60;;;9.40;;
3050;SDS011;1535;51.098;6.414;2023-12-20T00:32:55;9.70;;;9.50;;
3050;SDS011;1535;51.098;6.414;2023-12-20T00:35:23;10.07;;;9.87;;
3050;SDS011;1535;51.098;6.414;2023-12-20T00:37:50;10.40;;;10.20;;
3050;SDS011;1535;51.098;6.414;2023-12-20T00:40:17;10.50;;;10.30;;
3050;SDS011;1535;51.098;6.414;2023-12-20T00:42:44;10.20;;;10.00;;
3050;SDS011;1535;51.098;6.414;2023-12-20T00:45:12;9.60;;;9.40;;
3050;SDS011;1535;51.098;6.414;2023-12-20T00:47:40;9.40;;;9.20;;
3050;SDS011;1535;51.098;6.414;2023-12-20T00:50:07;10.00;;;9.80;;
3050;SDS011;1535;51.098;6.414;2023-12-20T00:52:36;9.30;;;9.10;;
3050;SDS011;1535;51.098;6.414;2023-12-20T00:55:03;9.43;;;9.23;;
3050;SDS011;1535;51.098;6.414;2023-12-20T00:57:31;9.90;;;9.70;;
3050;SDS011;1535;51.098;6.414;2023-12-20T00:59:58;9.90;;;9.70;;
3050;SDS011;1535;51.098;6.414;2023-12-20T01:02:25;9.13;;;8.93;;
3050;SDS011;1535;51.098;6.414;2023-12-20T01:04:53;9.53;;;9.33;;
3050;SDS011;1535;51.098;6.414;2023-12-20T01:07:19;9.10;;;8.90;;
3050;SDS011;1535;51.098;6.414;2023-12-20T01:09:48;9.57;;;9.37;;
3050;SDS011;1535;51.098;6.414;2023-12-20T01:12:15;10.37;;;10.17;;
3050;SDS011;1535;51.098;6.414;2023-12-20T01:14:42;9.80;;;9.60;;
3050;SDS011;1535;51.098;6.414;2023-12-20T01:17:10;9.83;;;9.63;;
3050;SDS011;1535;51.098;6.414;2023-12-20T01:19:38;10.13;;;9.93;;
3050;SDS011;1535;51.098;6.414;2023-12-20T01:22:05;10.40;;;10.20;;
3050;SDS011;1535;51.098;6.414;2023-12-20T01:24:32;10.50;;;10.30;;
3050;SDS011;1535;51.098;6.414;2023-12-20T01:27:00;10.30;;;10.10;;
3050;SDS011;1535;51.098;6.414;2023-12-20T01:29:27;10.40;;;10.20;;
3050;SDS011;1535;51.098;6.414;2023-12-20T01:31:54;10.77;;;10.47;;
3050;SDS011;1535;51.098;6.414;2023-12-20T01:34:20;10.37;;;10.17;;
3050;SDS011;1535;51.098;6.414;2023-12-20T01:36:48;10.57;;;10.33;;
3050;SDS011;1535;51.098;6.414;2023-12-20T01:39:16;11.10;;;10.80;;
3050;SDS011;1535;51.098;6.414;2023-12-20T01:41:44;10.23;;;10.03;;
3050;SDS011;1535;51.098;6.414;2023-12-20T01:44:12;10.87;;;10.57;;
3050;SDS011;1535;51.098;6.414;2023-12-20T01:46:39;11.10;;;10.80;;
3050;SDS011;1535;51.098;6.414;2023-12-20T01:49:07;12.20;;;11.80;;
3050;SDS011;1535;51.098;6.414;2023-12-20T01:51:34;12.50;;;12.10;;
3050;SDS011;1535;51.098;6.414;2023-12-20T01:54:01;12.20;;;11.90;;
3050;SDS011;1535;51.098;6.414;2023-12-20T01:56:29;11.67;;;11.37;;
3050;SDS011;1535;51.098;6.414;2023-12-20T01:58:58;11.77;;;11.47;;
3050;SDS011;1535;51.098;6.414;2023-12-20T02:01:27;11.77;;;11.47;;
3050;SDS011;1535;51.098;6.414;2023-12-20T02:03:55;12.13;;;11.83;;
3050;SDS011;1535;51.098;6.414;2023-12-20T02:06:23;12.10;;;11.80;;
3050;SDS011;1535;51.098;6.414;2023-12-20T02:08:54;11.97;;;11.67;;
3050;SDS011;1535;51.098;6.414;2023-12-20T02:11:21;11.57;;;11.27;;
3050;SDS011;1535;51.098;6.414;2023-12-20T02:13:50;12.00;;;11.70;;
3050;SDS011;1535;51.098;6.414;2023-12-20T02:16:17;11.67;;;11.37;;
3050;SDS011;1535;51.098;6.414;2023-12-20T02:18:45;12.00;;;11.70;;
3050;SDS011;1535;51.098;6.414;2023-12-20T02:21:12;11.80;;;11.50;;
3050;SDS011;1535;51.098;6.414;2023-12-20T02:23:40;11.77;;;11.47;;
3050;SDS011;1535;51.098;6.414;2023-12-20T02:26:06;11.53;;;11.23;;
3050;SDS011;1535;51.098;6.414;2023-12-20T02:28:33;11.57;;;11.27;;
3050;SDS011;1535;51.098;6.414;2023-12-20T02:31:03;11.70;;;11.40;;
3050;SDS011;1535;51.098;6.414;2023-12-20T02:33:29;11.20;;;10.90;;
3050;SDS011;1535;51.098;6.414;2023-12-20T02:35:56;11.07;;;10.77;;
3050;SDS011;1535;51.098;6.414;2023-12-20T02:38:23;11.33;;;11.03;;
3050;SDS011;1535;51.098;6.414;2023-12-20T02:40:51;11.33;;;11.03;;
3050;SDS011;1535;51.098;6.414;2023-12-20T02:43:18;11.00;;;10.70;;
3050;SDS011;1535;51.098;6.414;2023-12-20T02:45:44;10.87;;;10.63;;
3050;SDS011;1535;51.098;6.414;2023-12-20T02:48:11;11.50;;;11.20;;
3050;SDS011;1535;51.098;6.414;2023-12-20T02:50:38;10.27;;;10.07;;
3050;SDS011;1535;51.098;6.414;2023-12-20T02:53:05;11.20;;;10.90;;
3050;SDS011;1535;51.098;6.414;2023-12-20T02:55:32;11.00;;;10.70;;
3050;SDS011;1535;51.098;6.414;2023-12-20T02:58:00;11.03;;;10.73;;
3050;SDS011;1535;51.098;6.414;2023-12-20T03:00:26;11.50;;;11.20;;
3050;SDS011;1535;51.098;6.414;2023-12-20T03:02:54;11.27;;;10.97;;
3050;SDS011;1535;51.098;6.414;2023-12-20T03:05:20;11.50;;;11.20;;
3050;SDS011;1535;51.098;6.414;2023-12-20T03:07:47;10.80;;;10.60;;
3050;SDS011;1535;51.098;6.414;2023-12-20T03:10:14;11.20;;;10.90;;
3050;SDS011;1535;51.098;6.414;2023-12-20T03:12:41;10.37;;;10.17;;
3050;SDS011;1535;51.098;6.414;2023-12-20T03:15:09;10.63;;;10.43;;
3050;SDS011;1535;51.098;6.414;2023-12-20T03:17:36;11.10;;;10.80;;
3050;SDS011;1535;51.098;6.414;2023-12-20T03:20:03;11.20;;;10.90;;
3050;SDS011;1535;51.098;6.414;2023-12-20T03:22:30;10.80;;;10.60;;
3050;SDS011;1535;51.098;6.414;2023-12-20T03:24:58;11.23;;;10.93;;
3050;SDS011;1535;51.098;6.414;2023-12-20T03:27:25;11.70;;;11.40;;
3050;SDS011;1535;51.098;6.414;2023-12-20T03:29:52;11.33;;;11.03;;
3050;SDS011;1535;51.098;6.414;2023-12-20T03:32:20;12.10;;;11.80;;
3050;SDS011;1535;51.098;6.414;2023-12-20T03:34:47;11.90;;;11.60;;
3050;SDS011;1535;51.098;6.414;2023-12-20T03:37:15;11.67;;;11.37;;
3050;SDS011;1535;51.098;6.414;2023-12-20T03:39:41;11.20;;;10.90;;
3050;SDS011;1535;51.098;6.414;2023-12-20T03:42:08;11.40;;;11.10;;
3050;SDS011;1535;51.098;6.414;2023-12-20T03:44:38;11.10;;;10.80;;
3050;SDS011;1535;51.098;6.414;2023-12-20T03:47:06;10.40;;;10.20;;
3050;SDS011;1535;51.098;6.414;2023-12-20T03:49:35;10.67;;;10.47;;
3050;SDS011;1535;51.098;6.414;2023-12-20T03:52:03;10.80;;;10.60;;
3050;SDS011;1535;51.098;6.414;2023-12-20T03:54:31;11.20;;;10.90;;
3050;SDS011;1535;51.098;6.414;2023-12-20T03:57:00;11.30;;;11.00;;
3050;SDS011;1535;51.098;6.414;2023-12-20T03:59:26;10.73;;;10.53;;
3050;SDS011;1535;51.098;6.414;2023-12-20T04:01:53;10.80;;;10.60;;
3050;SDS011;1535;51.098;6.414;2023-12-20T04:04:21;10.90;;;10.70;;
3050;SDS011;1535;51.098;6.414;2023-12-20T04:06:49;10.10;;;9.90;;
3050;SDS011;1535;51.098;6.414;2023-12-20T04:09:16;10.60;;;10.40;;
3050;SDS011;1535;51.098;6.414;2023-12-20T04:11:44;10.57;;;10.37;;
3050;SDS011;1535;51.098;6.414;2023-12-20T04:14:11;10.30;;;10.10;;
3050;SDS011;1535;51.098;6.414;2023-12-20T04:16:38;10.07;;;9.87;;
3050;SDS011;1535;51.098;6.414;2023-12-20T04:19:05;9.40;;;9.20;;
3050;SDS011;1535;51.098;6.414;2023-12-20T04:21:32;10.10;;;9.90;;
3050;SDS011;1535;51.098;6.414;2023-12-20T04:24:00;9.60;;;9.40;;
3050;SDS011;1535;51.098;6.414;2023-12-20T04:26:27;9.43;;;9.23;;
3050;SDS011;1535;51.098;6.414;2023-12-20T04:28:54;9.43;;;9.23;;
3050;SDS011;1535;51.098;6.414;2023-12-20T04:31:21;9.10;;;8.90;;
3050;SDS011;1535;51.098;6.414;2023-12-20T04:33:49;9.40;;;9.20;;
3050;SDS011;1535;51.098;6.414;2023-12-20T04:36:15;8.93;;;8.77;;
3050;SDS011;1535;51.098;6.414;2023-12-20T04:38:42;8.73;;;8.63;;
3050;SDS011;1535;51.098;6.414;2023-12-20T04:41:11;8.23;;;8.13;;
3050;SDS011;1535;51.098;6.414;2023-12-20T04:43:41;8.80;;;8.70;;
3050;SDS011;1535;51.098;6.414;2023-12-20T04:46:08;8.20;;;8.10;;
3050;SDS011;1535;51.098;6.414;2023-12-20T04:48:35;7.50;;;7.40;;
3050;SDS011;1535;51.098;6.414;2023-12-20T04:51:02;7.13;;;7.03;;
3050;SDS011;1535;51.098;6.414;2023-12-20T04:53:29;6.97;;;6.87;;
3050;SDS011;1535;51.098;6.414;2023-12-20T04:55:56;6.90;;;6.80;;
3050;SDS011;1535;51.098;6.414;2023-12-20T04:58:25;7.20;;;7.10;;
3050;SDS011;1535;51.098;6.414;2023-12-20T05:00:51;7.30;;;7.20;;
3050;SDS011;1535;51.098;6.414;2023-12-20T05:03:18;7.10;;;7.00;;
3050;SDS011;1535;51.098;6.414;2023-12-20T05:05:45;6.50;;;6.40;;
3050;SDS011;1535;51.098;6.414;2023-12-20T05:08:13;7.00;;;6.90;;
3050;SDS011;1535;51.098;6.414;2023-12-20T05:10:40;7.67;;;7.57;;
3050;SDS011;1535;51.098;6.414;2023-12-20T05:13:08;7.90;;;7.80;;
3050;SDS011;1535;51.098;6.414;2023-12-20T05:15:37;7.70;;;7.60;;
3050;SDS011;1535;51.098;6.414;2023-12-20T05:18:04;7.83;;;7.73;;
3050;SDS011;1535;51.098;6.414;2023-12-20T05:20:31;7.77;;;7.67;;
3050;SDS011;1535;51.098;6.414;2023-12-20T05:22:58;7.27;;;7.17;;
3050;SDS011;1535;51.098;6.414;2023-12-20T05:25:25;8.30;;;8.20;;
3050;SDS011;1535;51.098;6.414;2023-12-20T05:27:52;7.13;;;7.03;;
3050;SDS011;1535;51.098;6.414;2023-12-20T05:30:21;7.57;;;7.47;;
3050;SDS011;1535;51.098;6.414;2023-12-20T05:32:49;7.00;;;6.90;;
3050;SDS011;1535;51.098;6.414;2023-12-20T05:35:16;7.43;;;7.33;;
3050;SDS011;1535;51.098;6.414;2023-12-20T05:37:44;7.00;;;6.90;;
3050;SDS011;1535;51.098;6.414;2023-12-20T05:40:11;7.47;;;7.37;;
3050;SDS011;1535;51.098;6.414;2023-12-20T05:42:37;7.83;;;7.73;;
3050;SDS011;1535;51.098;6.414;2023-12-20T05:45:05;7.37;;;7.27;;
3050;SDS011;1535;51.098;6.414;2023-12-20T05:47:32;7.20;;;7.10;;
3050;SDS011;1535;51.098;6.414;2023-12-20T05:50:02;6.90;;;6.80;;
3050;SDS011;1535;51.098;6.414;2023-12-20T05:52:29;7.10;;;7.00;;
3050;SDS011;1535;51.098;6.414;2023-12-20T05:54:56;7.00;;;6.90;;
3050;SDS011;1535;51.098;6.414;2023-12-20T05:57:26;7.37;;;7.27;;
3050;SDS011;1535;51.098;6.414;2023-12-20T05:59:52;6.93;;;6.83;;
3050;SDS011;1535;51.098;6.414;2023-12-20T06:02:20;6.90;;;6.80;;
3050;SDS011;1535;51.098;6.414;2023-12-20T06:04:47;6.63;;;6.53;;
3050;SDS011;1535;51.098;6.414;2023-12-20T06:07:16;6.80;;;6.70;;
3050;SDS011;1535;51.098;6.414;2023-12-20T06:09:43;6.80;;;6.70;;
3050;SDS011;1535;51.098;6.414;2023-12-20T06:12:10;6.80;;;6.70;;
3050;SDS011;1535;51.098;6.414;2023-12-20T06:14:37;7.20;;;7.10;;
3050;SDS011;1535;51.098;6.414;2023-12-20T06:17:04;7.13;;;7.03;;
3050;SDS011;1535;51.098;6.414;2023-12-20T06:19:31;7.37;;;7.27;;
3050;SDS011;1535;51.098;6.414;2023-12-20T06:21:57;7.37;;;7.27;;
3050;SDS011;1535;51.098;6.414;2023-12-20T06:24:26;7.20;;;7.10;;
3050;SDS011;1535;51.098;6.414;2023-12-20T06:26:53;6.93;;;6.83;;
3050;SDS011;1535;51.098;6.414;2023-12-20T06:29:21;7.30;;;7.20;;
3050;SDS011;1535;51.098;6.414;2023-12-20T06:31:48;7.40;;;7.30;;
3050;SDS011;1535;51.098;6.414;2023-12-20T06:34:15;7.47;;;7.37;;
3050;SDS011;1535;51.098;6.414;2023-12-20T06:36:41;7.40;;;7.30;;
3050;SDS011;1535;51.098;6.414;2023-12-20T06:39:08;7.30;;;7.20;;
3050;SDS011;1535;51.098;6.414;2023-12-20T06:41:39;7.27;;;7.17;;
3050;SDS011;1535;51.098;6.414;2023-12-20T06:44:07;7.50;;;7.40;;
3050;SDS011;1535;51.098;6.414;2023-12-20T06:46:35;8.10;;;8.00;;
3050;SDS011;1535;51.098;6.414;2023-12-20T06:49:01;7.63;;;7.53;;
3050;SDS011;1535;51.098;6.414;2023-12-20T06:51:28;7.93;;;7.83;;
3050;SDS011;1535;51.098;6.414;2023-12-20T06:53:56;7.90;;;7.80;;
3050;SDS011;1535;51.098;6.414;2023-12-20T06:56:25;7.70;;;7.60;;
3050;SDS011;1535;51.098;6.414;2023-12-20T06:58:53;7.40;;;7.30;;
3050;SDS011;1535;51.098;6.414;2023-12-20T07:01:19;7.53;;;7.43;;
3050;SDS011;1535;51.098;6.414;2023-12-20T07:03:47;7.53;;;7.43;;
3050;SDS011;1535;51.098;6.414;2023-12-20T07:06:14;7.87;;;7.77;;
3050;SDS011;1535;51.098;6.414;2023-12-20T07:08:42;8.00;;;7.90;;
3050;SDS011;1535;51.098;6.414;2023-12-20T07:11:08;7.80;;;7.70;;
3050;SDS011;1535;51.098;6.414;2023-12-20T07:13:35;7.97;;;7.87;;
3050;SDS011;1535;51.098;6.414;2023-12-20T07:16:04;7.63;;;7.53;;
3050;SDS011;1535;51.098;6.414;2023-12-20T07:18:31;7.90;;;7.80;;
3050;SDS011;1535;51.098;6.414;2023-12-20T07:20:58;7.73;;;7.63;;
3050;SDS011;1535;51.098;6.414;2023-12-20T07:23:25;7.63;;;7.53;;
3050;SDS011;1535;51.098;6.414;2023-12-20T07:25:51;7.70;;;7.60;;
3050;SDS011;1535;51.098;6.414;2023-12-20T07:28:18;6.93;;;6.83;;
3050;SDS011;1535;51.098;6.414;2023-12-20T07:30:45;7.50;;;7.40;;
3050;SDS011;1535;51.098;6.414;2023-12-20T07:33:13;7.13;;;7.03;;
3050;SDS011;1535;51.098;6.414;2023-12-20T07:35:40;7.27;;;7.17;;
3050;SDS011;1535;51.098;6.414;2023-12-20T07:38:10;8.10;;;8.00;;
3050;SDS011;1535;51.098;6.414;2023-12-20T07:40:37;7.60;;;7.50;;
3050;SDS011;1535;51.098;6.414;2023-12-20T07:43:04;8.23;;;8.13;;
3050;SDS011;1535;51.098;6.414;2023-12-20T07:45:31;8.00;;;7.90;;
3050;SDS011;1535;51.098;6.414;2023-12-20T07:47:58;7.90;;;7.80;;
3050;SDS011;1535;51.098;6.414;2023-12-20T07:50:26;7.57;;;7.47;;
3050;SDS011;1535;51.098;6.414;2023-12-20T07:52:53;7.60;;;7.50;;
3050;SDS011;1535;51.098;6.414;2023-12-20T07:55:20;7.40;;;7.30;;
3050;SDS011;1535;51.098;6.414;2023-12-20T07:57:47;7.50;;;7.40;;
3050;SDS011;1535;51.098;6.414;2023-12-20T08:00:15;7.50;;;7.40;;
3050;SDS011;1535;51.098;6.414;2023-12-20T08:02:42;7.13;;;7.03;;
3050;SDS011;1535;51.098;6.414;2023-12-20T08:05:09;7.40;;;7.30;;
3050;SDS011;1535;51.098;6.414;2023-12-20T08:07:38;7.03;;;6.93;;
3050;SDS011;1535;51.098;6.414;2023-12-20T08:10:06;7.40;;;7.30;;
3050;SDS011;1535;51.098;6.414;2023-12-20T08:12:33;6.50;;;6.40;;
3050;SDS011;1535;51.098;6.414;2023-12-20T08:15:00;7.23;;;7.13;;
3050;SDS011;1535;51.098;6.414;2023-12-20T08:17:29;7.70;;;7.60;;
3050;SDS011;1535;51.098;6.414;2023-12-20T08:19:56;8.23;;;8.13;;
3050;SDS011;1535;51.098;6.414;2023-12-20T08:22:23;7.83;;;7.73;;
3050;SDS011;1535;51.098;6.414;2023-12-20T08:24:51;7.80;;;7.70;;
3050;SDS011;1535;51.098;6.414;2023-12-20T08:27:19;7.47;;;7.37;;
3050;SDS011;1535;51.098;6.414;2023-12-20T08:29:46;7.40;;;7.30;;
3050;SDS011;1535;51.098;6.414;2023-12-20T08:32:15;7.10;;;7.00;;
3050;SDS011;1535;51.098;6.414;2023-12-20T08:34:41;7.10;;;7.00;;
3050;SDS011;1535;51.098;6.414;2023-12-20T08:37:08;6.63;;;6.53;;
3050;SDS011;1535;51.098;6.414;2023-12-20T08:39:35;7.30;;;7.20;;
3050;SDS011;1535;51.098;6.414;2023-12-20T08:42:04;7.37;;;7.27;;
3050;SDS011;1535;51.098;6.414;2023-12-20T08:44:30;7.53;;;7.43;;
3050;SDS011;1535;51.098;6.414;2023-12-20T08:46:57;8.30;;;8.20;;
3050;SDS011;1535;51.098;6.414;2023-12-20T08:49:24;8.60;;;8.50;;
3050;SDS011;1535;51.098;6.414;2023-12-20T08:51:51;8.60;;;8.50;;
3050;SDS011;1535;51.098;6.414;2023-12-20T08:54:18;8.13;;;8.03;;
3050;SDS011;1535;51.098;6.414;2023-12-20T08:56:45;8.47;;;8.37;;
3050;SDS011;1535;51.098;6.414;2023-12-20T08:59:13;8.90;;;8.70;;
3050;SDS011;1535;51.098;6.414;2023-12-20T09:01:40;8.93;;;8.73;;
3050;SDS011;1535;51.098;6.414;2023-12-20T09:04:07;8.97;;;8.77;;
3050;SDS011;1535;51.098;6.414;2023-12-20T09:06:35;8.93;;;8.73;;
3050;SDS011;1535;51.098;6.414;2023-12-20T09:09:03;9.37;;;9.17;;
3050;SDS011;1535;51.098;6.414;2023-12-20T09:11:33;9.50;;;9.30;;
3050;SDS011;1535;51.098;6.414;2023-12-20T09:14:00;9.33;;;9.13;;
3050;SDS011;1535;51.098;6.414;2023-12-20T09:16:29;9.73;;;9.53;;
3050;SDS011;1535;51.098;6.414;2023-12-20T09:18:57;9.87;;;9.67;;
3050;SDS011;1535;51.098;6.414;2023-12-20T09:21:24;9.50;;;9.30;;
3050;SDS011;1535;51.098;6.414;2023-12-20T09:23:51;9.20;;;9.00;;
3050;SDS011;1535;51.098;6.414;2023-12-20T09:26:17;9.23;;;9.03;;
3050;SDS011;1535;51.098;6.414;2023-12-20T09:28:44;9.70;;;9.50;;
3050;SDS011;1535;51.098;6.414;2023-12-20T09:31:11;9.80;;;9.60;;
3050;SDS011;1535;51.098;6.414;2023-12-20T09:33:39;9.83;;;9.63;;
3050;SDS011;1535;51.098;6.414;2023-12-20T09:36:07;10.17;;;9.97;;
3050;SDS011;1535;51.098;6.414;2023-12-20T09:38:34;9.83;;;9.63;;
3050;SDS011;1535;51.098;6.414;2023-12-20T09:41:00;9.97;;;9.77;;
3050;SDS011;1535;51.098;6.414;2023-12-20T09:43:29;10.00;;;9.80;;
3050;SDS011;1535;51.098;6.414;2023-12-20T09:45:57;10.60;;;10.30;;
3050;SDS011;1535;51.098;6.414;2023-12-20T09:48:28;10.27;;;10.07;;
3050;SDS011;1535;51.098;6.414;2023-12-20T09:50:56;10.30;;;10.10;;
3050;SDS011;1535;51.098;6.414;2023-12-20T09:53:23;10.37;;;10.13;;
3050;SDS011;1535;51.098;6.414;2023-12-20T09:55:54;10.30;;;10.10;;
3050;SDS011;1535;51.098;6.414;2023-12-20T09:58:23;11.07;;;10.77;;
3050;SDS011;1535;51.098;6.414;2023-12-20T10:00:50;11.07;;;10.77;;
3050;SDS011;1535;51.098;6.414;2023-12-20T10:03:18;11.40;;;11.10;;
3050;SDS011;1535;51.098;6.414;2023-12-20T10:05:50;10.90;;;10.60;;
3050;SDS011;1535;51.098;6.414;2023-12-20T10:08:22;10.60;;;10.30;;
3050;SDS011;1535;51.098;6.414;2023-12-20T10:10:50;10.73;;;10.43;;
3050;SDS011;1535;51.098;6.414;2023-12-20T10:13:17;9.97;;;9.77;;
3050;SDS011;1535;51.098;6.414;2023-12-20T10:15:43;11.03;;;10.73;;
3050;SDS011;1535;51.098;6.414;2023-12-20T10:18:12;10.70;;;10.40;;
3050;SDS011;1535;51.098;6.414;2023-12-20T10:20:40;10.83;;;10.53;;
3050;SDS011;1535;51.098;6.414;2023-12-20T10:23:07;10.90;;;10.60;;
3050;SDS011;1535;51.098;6.414;2023-12-20T10:25:35;11.07;;;10.77;;
3050;SDS011;1535;51.098;6.414;2023-12-20T10:28:09;10.87;;;10.57;;
3050;SDS011;1535;51.098;6.414;2023-12-20T10:30:54;10.27;;;10.07;;
3050;SDS011;1535;51.098;6.414;2023-12-20T10:33:23;10.20;;;10.00;;
3050;SDS011;1535;51.098;6.414;2023-12-20T10:35:51;10.70;;;10.40;;
3050;SDS011;1535;51.098;6.414;2023-12-20T10:38:18;10.77;;;10.47;;
3050;SDS011;1535;51.098;6.414;2023-12-20T10:40:46;10.87;;;10.57;;
3050;SDS011;1535;51.098;6.414;2023-12-20T10:43:12;10.90;;;10.60;;
3050;SDS011;1535;51.098;6.414;2023-12-20T10:45:41;10.73;;;10.43;;
3050;SDS011;1535;51.098;6.414;2023-12-20T10:48:09;10.70;;;10.40;;
3050;SDS011;1535;51.098;6.414;2023-12-20T10:50:37;10.80;;;10.50;;
3050;SDS011;1535;51.098;6.414;2023-12-20T10:53:05;10.57;;;10.27;;
3050;SDS011;1535;51.098;6.414;2023-12-20T10:55:33;10.87;;;10.57;;
3050;SDS011;1535;51.098;6.414;2023-12-20T10:58:00;10.60;;;10.30;;
3050;SDS011;1535;51.098;6.414;2023-12-20T11:00:28;11.00;;;10.70;;
3050;SDS011;1535;51.098;6.414;2023-12-20T11:02:57;11.00;;;10.70;;
3050;SDS011;1535;51.098;6.414;2023-12-20T11:05:31;10.93;;;10.63;;
3050;SDS011;1535;51.098;6.414;2023-12-20T11:08:06;10.63;;;10.33;;
3050;SDS011;1535;51.098;6.414;2023-12-20T11:10:36;10.97;;;10.67;;
3050;SDS011;1535;51.098;6.414;2023-12-20T11:13:10;11.20;;;10.90;;
3050;SDS011;1535;51.098;6.414;2023-12-20T11:15:43;10.73;;;10.43;;
3050;SDS011;1535;51.098;6.414;2023-12-20T11:18:11;11.03;;;10.73;;
3050;SDS011;1535;51.098;6.414;2023-12-20T11:20:40;11.30;;;11.00;;
3050;SDS011;1535;51.098;6.414;2023-12-20T11:23:07;11.30;;;11.00;;
3050;SDS011;1535;51.098;6.414;2023-12-20T11:25:46;11.10;;;10.80;;
3050;SDS011;1535;51.098;6.414;2023-12-20T11:28:14;10.93;;;10.63;;
3050;SDS011;1535;51.098;6.414;2023-12-20T11:30:45;10.60;;;10.30;;
3050;SDS011;1535;51.098;6.414;2023-12-20T11:33:13;10.87;;;10.57;;
3050;SDS011;1535;51.098;6.414;2023-12-20T11:35:42;10.73;;;10.43;;
3050;SDS011;1535;51.098;6.414;2023-12-20T11:38:09;10.70;;;10.40;;
3050;SDS011;1535;51.098;6.414;2023-12-20T11:40:36;10.80;;;10.50;;
3050;SDS011;1535;51.098;6.414;2023-12-20T11:43:04;10.90;;;10.60;;
3050;SDS011;1535;51.098;6.414;2023-12-20T11:45:31;11.00;;;10.70;;
3050;SDS011;1535;51.098;6.414;2023-12-20T11:47:59;10.40;;;10.10;;
3050;SDS011;1535;51.098;6.414;2023-12-20T11:50:27;10.70;;;10.40;;
3050;SDS011;1535;51.098;6.414;2023-12-20T11:52:56;10.00;;;9.80;;
3050;SDS011;1535;51.098;6.414;2023-12-20T11:55:23;10.50;;;10.20;;
3050;SDS011;1535;51.098;6.414;2023-12-20T11:57:50;9.97;;;9.77;;
3050;SDS011;1535;51.098;6.414;2023-12-20T12:00:17;10.87;;;10.57;;
3050;SDS011;1535;51.098;6.414;2023-12-20T12:02:54;11.13;;;10.83;;
3050;SDS011;1535;51.098;6.414;2023-12-20T12:05:21;11.10;;;10.80;;
3050;SDS011;1535;51.098;6.414;2023-12-20T12:07:49;10.60;;;10.30;;
3050;SDS011;1535;51.098;6.414;2023-12-20T12:10:17;10.70;;;10.40;;
3050;SDS011;1535;51.098;6.414;2023-12-20T12:12:44;10.37;;;10.07;;
3050;SDS011;1535;51.098;6.414;2023-12-20T12:15:11;9.60;;;9.40;;
3050;SDS011;1535;51.098;6.414;2023-12-20T12:17:38;8.97;;;8.77;;
3050;SDS011;1535;51.098;6.414;2023-12-20T12:20:05;9.50;;;9.30;;
3050;SDS011;1535;51.098;6.414;2023-12-20T12:22:34;9.30;;;9.10;;
3050;SDS011;1535;51.098;6.414;2023-12-20T12:25:09;8.23;;;8.13;;
3050;SDS011;1535;51.098;6.414;2023-12-20T12:27:38;8.40;;;8.30;;
3050;SDS011;1535;51.098;6.414;2023-12-20T12:30:06;9.10;;;8.90;;
3050;SDS011;1535;51.098;6.414;2023-12-20T12:32:34;9.07;;;8.87;;
3050;SDS011;1535;51.098;6.414;2023-12-20T12:35:02;9.30;;;9.10;;
3050;SDS011;1535;51.098;6.414;2023-12-20T12:37:31;8.80;;;8.60;;
3050;SDS011;1535;51.098;6.414;2023-12-20T12:40:01;8.57;;;8.43;;
3050;SDS011;1535;51.098;6.414;2023-12-20T12:42:31;9.00;;;8.80;;
3050;SDS011;1535;51.098;6.414;2023-12-20T12:44:59;8.77;;;8.57;;
3050;SDS011;1535;51.098;6.414;2023-12-20T12:47:25;9.03;;;8.83;;
3050;SDS011;1535;51.098;6.414;2023-12-20T12:49:52;8.80;;;8.60;;
3050;SDS011;1535;51.098;6.414;2023-12-20T12:52:19;8.13;;;8.03;;
3050;SDS011;1535;51.098;6.414;2023-12-20T12:54:46;9.73;;;9.53;;
3050;SDS011;1535;51.098;6.414;2023-12-20T12:57:13;9.73;;;9.53;;
3050;SDS011;1535;51.098;6.414;2023-12-20T12:59:41;10.30;;;10.00;;
3050;SDS011;1535;51.098;6.414;2023-12-20T13:02:10;9.90;;;9.70;;
3050;SDS011;1535;51.098;6.414;2023-12-20T13:04:38;9.30;;;9.10;;
3050;SDS011;1535;51.098;6.414;2023-12-20T13:07:05;9.50;;;9.30;;
3050;SDS011;1535;51.098;6.414;2023-12-20T13:09:32;9.37;;;9.17;;
3050;SDS011;1535;51.098;6.414;2023-12-20T13:11:59;9.03;;;8.83;;
3050;SDS011;1535;51.098;6.414;2023-12-20T13:14:28;9.40;;;9.20;;
3050;SDS011;1535;51.098;6.414;2023-12-20T13:16:55;8.57;;;8.47;;
3050;SDS011;1535;51.098;6.414;2023-12-20T13:19:23;8.17;;;8.07;;
3050;SDS011;1535;51.098;6.414;2023-12-20T13:21:50;8.20;;;8.10;;
3050;SDS011;1535;51.098;6.414;2023-12-20T13:24:17;8.10;;;8.00;;
3050;SDS011;1535;51.098;6.414;2023-12-20T13:26:44;7.03;;;6.93;;
3050;SDS011;1535;51.098;6.414;2023-12-20T13:29:11;7.00;;;6.90;;
3050;SDS011;1535;51.098;6.414;2023-12-20T13:31:38;6.50;;;6.40;;
3050;SDS011;1535;51.098;6.414;2023-12-20T13:34:06;6.90;;;6.80;;
3050;SDS011;1535;51.098;6.414;2023-12-20T13:36:34;6.60;;;6.50;;
3050;SDS011;1535;51.098;6.414;2023-12-20T13:39:01;6.60;;;6.50;;
3050;SDS011;1535;51.098;6.414;2023-12-20T13:41:30;5.93;;;5.83;;
3050;SDS011;1535;51.098;6.414;2023-12-20T13:43:57;6.70;;;6.60;;
3050;SDS011;1535;51.098;6.414;2023-12-20T13:46:23;6.30;;;6.20;;
3050;SDS011;1535;51.098;6.414;2023-12-20T13:48:50;6.40;;;6.30;;
3050;SDS011;1535;51.098;6.414;2023-12-20T13:51:17;5.93;;;5.83;;
3050;SDS011;1535;51.098;6.414;2023-12-20T13:53:47;5.80;;;5.70;;
3050;SDS011;1535;51.098;6.414;2023-12-20T13:56:14;5.73;;;5.63;;
3050;SDS011;1535;51.098;6.414;2023-12-20T13:58:41;6.60;;;6.50;;
3050;SDS011;1535;51.098;6.414;2023-12-20T14:01:08;6.40;;;6.30;;
3050;SDS011;1535;51.098;6.414;2023-12-20T14:03:35;6.87;;;6.77;;
3050;SDS011;1535;51.098;6.414;2023-12-20T14:06:02;7.10;;;7.00;;
3050;SDS011;1535;51.098;6.414;2023-12-20T14:08:29;7.40;;;7.30;;
3050;SDS011;1535;51.098;6.414;2023-12-20T14:10:57;7.40;;;7.30;;
3050;SDS011;1535;51.098;6.414;2023-12-20T14:13:26;7.40;;;7.30;;
3050;SDS011;1535;51.098;6.414;2023-12-20T14:15:53;7.47;;;7.37;;
3050;SDS011;1535;51.098;6.414;2023-12-20T14:18:20;7.60;;;7.50;;
3050;SDS011;1535;51.098;6.414;2023-12-20T14:20:47;7.70;;;7.60;;
3050;SDS011;1535;51.098;6.414;2023-12-20T14:23:15;7.60;;;7.50;;
3050;SDS011;1535;51.098;6.414;2023-12-20T14:25:42;8.13;;;8.03;;
3050;SDS011;1535;51.098;6.414;2023-12-20T14:28:11;7.63;;;7.53;;
3050;SDS011;1535;51.098;6.414;2023-12-20T14:30:39;7.97;;;7.87;;
3050;SDS011;1535;51.098;6.414;2023-12-20T14:33:06;8.10;;;8.00;;
3050;SDS011;1535;51.098;6.414;2023-12-20T14:35:33;8.30;;;8.20;;
3050;SDS011;1535;51.098;6.414;2023-12-20T14:38:00;8.10;;;8.00;;
3050;SDS011;1535;51.098;6.414;2023-12-20T14:40:27;8.77;;;8.57;;
3050;SDS011;1535;51.098;6.414;2023-12-20T14:42:54;8.33;;;8.23;;
3050;SDS011;1535;51.098;6.414;2023-12-20T14:45:23;8.00;;;7.90;;
3050;SDS011;1535;51.098;6.414;2023-12-20T14:47:50;7.73;;;7.63;;
3050;SDS011;1535;51.098;6.414;2023-12-20T14:50:17;7.83;;;7.73;;
3050;SDS011;1535;51.098;6.414;2023-12-20T14:52:44;8.00;;;7.90;;
3050;SDS011;1535;51.098;6.414;2023-12-20T14:55:11;8.53;;;8.43;;
3050;SDS011;1535;51.098;6.414;2023-12-20T14:57:38;8.50;;;8.40;;
3050;SDS011;1535;51.098;6.414;2023-12-20T15:00:05;8.10;;;8.00;;
3050;SDS011;1535;51.098;6.414;2023-12-20T15:02:34;7.80;;;7.70;;
3050;SDS011;1535;51.098;6.414;2023-12-20T15:05:01;7.50;;;7.40;;
3050;SDS011;1535;51.098;6.414;2023-12-20T15:07:29;7.57;;;7.47;;